Time;durP1;ratioP1;P1;durP2;ratioP2;P2;SDS_P1;SDS_P2;PMS_P1;PMS_P2;Temp;Humidity;BMP_temperature;BMP_pressure;BME280_temperature;BME280_humidity;BME280_pressure;Samples;Min_cycle;Max_cycle;Signal;HPM_P1;HPM_P2
2022/12/30 00:01:57;;;;;;;8.10;7.90;;;7.50;99.90;;;;;;5162952;27;20284;-83
2022/12/30 00:04:25;;;;;;;8.00;7.80;;;7.40;99.90;;;;;;5163059;27;20216;-84
2022/12/30 00:06:53;;;;;;;8.00;7.80;;;7.40;99.90;;;;;;5161276;27;20243;-84
2022/12/30 00:09:21;;;;;;;7.93;7.73;;;7.40;99.90;;;;;;5155344;27;20326;-84
2022/12/30 00:11:49;;;;;;;8.00;7.80;;;7.40;99.90;;;;;;5160623;27;20269;-84
2022/12/30 00:33:57;;;;;;;7.73;7.53;;;7.10;99.90;;;;;;5144758;27;20224;-84
2022/12/30 00:36:27;;;;;;;7.80;7.60;;;7.10;99.90;;;;;;5145078;27;20238;-84
2022/12/30 00:38:56;;;;;;;7.90;7.70;;;7.10;99.90;;;;;;5147973;27;20244;-84
2022/12/30 00:44:09;;;;;;;7.87;7.67;;;7.10;99.90;;;;;;5150232;27;20224;-84
2022/12/30 00:46:39;;;;;;;7.70;7.50;;;7.10;99.90;;;;;;5148439;27;20265;-84
2022/12/30 00:57:24;;;;;;;7.90;7.70;;;7.00;99.90;;;;;;5141660;27;20228;-84
2022/12/30 00:59:51;;;;;;;7.80;7.60;;;7.00;99.90;;;;;;5142352;27;20278;-84
2022/12/30 01:02:19;;;;;;;7.63;7.43;;;6.90;99.90;;;;;;5142142;27;20222;-84
2022/12/30 01:04:49;;;;;;;7.70;7.50;;;6.90;99.90;;;;;;5143179;27;20254;-84
2022/12/30 01:07:17;;;;;;;7.50;7.30;;;6.90;99.90;;;;;;5142277;27;20231;-84
2022/12/30 01:09:45;;;;;;;7.50;7.30;;;6.90;99.90;;;;;;5142409;27;20286;-84
2022/12/30 01:12:13;;;;;;;7.70;7.50;;;6.90;99.90;;;;;;5142400;27;20315;-84
2022/12/30 01:14:44;;;;;;;7.80;7.60;;;6.90;99.90;;;;;;5142742;27;20288;-84
2022/12/30 01:17:15;;;;;;;7.70;7.50;;;6.90;99.90;;;;;;5143308;27;20228;-84
2022/12/30 01:19:44;;;;;;;7.60;7.40;;;6.90;99.90;;;;;;5143154;27;20247;-85
2022/12/30 01:22:13;;;;;;;7.63;7.43;;;6.90;99.90;;;;;;5143537;27;20236;-84
2022/12/30 01:24:41;;;;;;;7.80;7.60;;;6.80;99.90;;;;;;5143756;27;20228;-85
2022/12/30 01:27:09;;;;;;;7.70;7.50;;;6.80;99.90;;;;;;5143150;27;20289;-84
2022/12/30 01:29:41;;;;;;;7.70;7.50;;;6.80;99.90;;;;;;5144842;27;20235;-84
2022/12/30 01:32:13;;;;;;;7.80;7.60;;;6.80;99.90;;;;;;5146011;27;20297;-84
2022/12/30 01:34:44;;;;;;;7.70;7.50;;;6.80;99.90;;;;;;5144779;27;20254;-84
2022/12/30 01:37:13;;;;;;;7.60;7.40;;;6.80;99.90;;;;;;5144627;27;20232;-84
2022/12/30 01:39:41;;;;;;;7.70;7.50;;;6.80;99.90;;;;;;5144052;27;20340;-84
2022/12/30 01:42:19;;;;;;;7.67;7.47;;;6.80;99.90;;;;;;5142354;27;20281;-84
2022/12/30 01:44:59;;;;;;;7.80;7.60;;;6.80;99.90;;;;;;5143133;27;20402;-84
2022/12/30 01:47:37;;;;;;;7.80;7.60;;;6.70;99.90;;;;;;5141619;27;20240;-84
2022/12/30 01:50:18;;;;;;;7.30;7.10;;;6.70;99.90;;;;;;5142561;27;20228;-85
2022/12/30 01:52:52;;;;;;;7.50;7.30;;;6.60;99.90;;;;;;5142802;27;20258;-84
2022/12/30 01:55:28;;;;;;;7.40;7.20;;;6.60;99.90;;;;;;5143151;27;20223;-84
2022/12/30 01:57:57;;;;;;;7.50;7.30;;;6.60;99.90;;;;;;5143130;27;20236;-85
2022/12/30 02:00:25;;;;;;;7.70;7.50;;;6.60;99.90;;;;;;5143119;27;20281;-84
2022/12/30 02:02:54;;;;;;;7.60;7.40;;;6.60;99.90;;;;;;5143154;27;20220;-84
2022/12/30 02:05:57;;;;;;;7.60;7.40;;;6.60;99.90;;;;;;5143481;27;21112;-84
2022/12/30 02:08:27;;;;;;;7.60;7.40;;;6.60;99.90;;;;;;5143006;27;20236;-84
2022/12/30 02:14:01;;;;;;;7.50;7.30;;;6.70;99.90;;;;;;5093511;27;20215;-84
2022/12/30 02:17:12;;;;;;;7.60;7.40;;;6.60;99.90;;;;;;5142536;27;20413;-84
2022/12/30 02:20:37;;;;;;;7.60;7.40;;;6.60;99.90;;;;;;5143682;27;20278;-84
2022/12/30 02:23:50;;;;;;;7.50;7.30;;;6.70;99.90;;;;;;5136244;27;20231;-84
2022/12/30 02:27:20;;;;;;;7.50;7.30;;;6.70;99.90;;;;;;5143309;27;20254;-82
2022/12/30 02:30:23;;;;;;;7.67;7.47;;;6.70;99.90;;;;;;5060660;28;20252;-82
2022/12/30 02:33:19;;;;;;;7.50;7.30;;;6.70;99.90;;;;;;5143877;27;20342;-82
2022/12/30 02:35:59;;;;;;;7.60;7.40;;;6.70;99.90;;;;;;5142223;27;20228;-82
2022/12/30 02:38:39;;;;;;;7.73;7.53;;;6.70;99.90;;;;;;5142814;27;20228;-82
2022/12/30 02:46:58;;;;;;;7.70;7.50;;;6.60;99.90;;;;;;5142339;27;20228;-82
2022/12/30 02:49:29;;;;;;;7.60;7.40;;;6.60;99.90;;;;;;5145373;27;20268;-82
2022/12/30 02:52:15;;;;;;;7.50;7.30;;;6.50;99.90;;;;;;5145117;27;20228;-82
2022/12/30 02:54:44;;;;;;;7.60;7.40;;;6.50;99.90;;;;;;5146174;27;20254;-82
2022/12/30 02:57:26;;;;;;;7.40;7.20;;;6.50;99.90;;;;;;5145831;27;20777;-82
2022/12/30 03:06:51;;;;;;;7.30;7.10;;;6.40;99.90;;;;;;5145913;27;20219;-82
2022/12/30 03:09:33;;;;;;;7.10;6.90;;;6.40;99.90;;;;;;5145143;27;20236;-82
2022/12/30 03:12:05;;;;;;;7.20;7.00;;;6.30;99.90;;;;;;5147334;27;20239;-82
2022/12/30 03:14:40;;;;;;;7.20;7.00;;;6.30;99.90;;;;;;5147233;27;20244;-82
2022/12/30 03:17:13;;;;;;;7.23;7.03;;;6.20;99.90;;;;;;5146997;27;20310;-82
2022/12/30 03:19:45;;;;;;;7.30;7.10;;;6.20;99.90;;;;;;5147686;27;20264;-82
2022/12/30 03:27:45;;;;;;;7.30;7.10;;;6.10;99.90;;;;;;5147167;27;20240;-82
2022/12/30 03:30:14;;;;;;;7.40;7.20;;;6.10;99.90;;;;;;5145972;27;20224;-82
2022/12/30 03:32:41;;;;;;;7.27;7.07;;;6.10;99.90;;;;;;5146092;27;20262;-82
2022/12/30 03:35:10;;;;;;;7.30;7.10;;;6.10;99.90;;;;;;5146429;27;20246;-82
2022/12/30 03:37:44;;;;;;;7.30;7.10;;;6.20;99.90;;;;;;5146875;27;20331;-82
2022/12/30 03:40:17;;;;;;;7.30;7.10;;;6.30;99.90;;;;;;5146739;27;20220;-83
2022/12/30 03:42:47;;;;;;;7.20;7.00;;;6.30;99.90;;;;;;5146569;27;20267;-82
2022/12/30 03:45:17;;;;;;;7.10;6.90;;;6.40;99.90;;;;;;5146343;27;20235;-82
2022/12/30 03:47:45;;;;;;;7.20;7.00;;;6.40;99.90;;;;;;5144872;27;20240;-82
2022/12/30 03:50:14;;;;;;;7.30;7.10;;;6.40;99.90;;;;;;5145623;27;20224;-82
2022/12/30 03:52:44;;;;;;;7.30;7.10;;;6.50;99.90;;;;;;5146604;27;20274;-82
2022/12/30 03:55:13;;;;;;;6.97;6.77;;;6.50;99.90;;;;;;5159871;27;20237;-82
2022/12/30 03:57:40;;;;;;;7.03;6.83;;;6.60;99.90;;;;;;5159888;27;20235;-82
2022/12/30 04:00:12;;;;;;;7.10;6.90;;;6.60;99.90;;;;;;5161371;27;20232;-82
2022/12/30 04:02:40;;;;;;;7.20;7.00;;;6.60;99.90;;;;;;5161057;27;20243;-82
2022/12/30 04:05:10;;;;;;;7.30;7.10;;;6.70;99.90;;;;;;5158348;27;20228;-83
2022/12/30 04:07:38;;;;;;;7.33;7.13;;;6.70;99.90;;;;;;5156248;27;20236;-82
2022/12/30 04:10:09;;;;;;;7.30;7.10;;;6.70;99.90;;;;;;5156394;27;20351;-82
2022/12/30 04:12:37;;;;;;;7.10;6.90;;;6.70;99.90;;;;;;5156206;27;20322;-82
2022/12/30 04:15:05;;;;;;;6.90;6.70;;;6.70;99.90;;;;;;5157817;27;20243;-83
2022/12/30 04:17:33;;;;;;;6.90;6.70;;;6.70;99.90;;;;;;5157533;27;20239;-82
2022/12/30 04:20:01;;;;;;;7.10;6.90;;;6.70;99.90;;;;;;5160163;27;20261;-82
2022/12/30 04:22:29;;;;;;;7.00;6.80;;;6.70;99.90;;;;;;5154207;27;20216;-82
2022/12/30 04:24:57;;;;;;;7.10;6.90;;;6.70;99.90;;;;;;5153408;27;20236;-83
2022/12/30 04:27:28;;;;;;;7.00;6.80;;;6.60;99.90;;;;;;5144479;27;20254;-83
2022/12/30 04:29:56;;;;;;;7.00;6.80;;;6.60;99.90;;;;;;5142138;27;20315;-83
2022/12/30 04:32:24;;;;;;;7.30;7.10;;;6.50;99.90;;;;;;5144561;27;20261;-85
2022/12/30 04:34:55;;;;;;;7.20;7.00;;;6.50;99.90;;;;;;5143767;27;20310;-84
2022/12/30 04:37:23;;;;;;;7.07;6.87;;;6.50;99.90;;;;;;5142771;27;20252;-84
2022/12/30 04:39:51;;;;;;;7.10;6.90;;;6.50;99.90;;;;;;5143001;27;20228;-84
2022/12/30 04:42:18;;;;;;;7.20;7.00;;;6.50;99.90;;;;;;5143824;27;20220;-84
2022/12/30 04:44:48;;;;;;;7.10;6.90;;;6.50;99.90;;;;;;5142803;27;20232;-84
2022/12/30 04:47:18;;;;;;;7.10;6.90;;;6.40;99.90;;;;;;5157730;22;20318;-84
2022/12/30 04:49:46;;;;;;;7.00;6.80;;;6.40;99.90;;;;;;5124783;28;20228;-84
2022/12/30 04:52:15;;;;;;;7.20;7.00;;;6.40;99.90;;;;;;5124894;28;21036;-84
2022/12/30 04:54:43;;;;;;;6.90;6.70;;;6.30;99.90;;;;;;5124733;28;20282;-84
2022/12/30 04:57:14;;;;;;;7.00;6.80;;;6.30;99.90;;;;;;5125288;27;20271;-84
2022/12/30 04:59:51;;;;;;;7.10;6.90;;;6.20;99.90;;;;;;5125166;28;20221;-83
2022/12/30 05:02:23;;;;;;;7.20;7.00;;;6.10;99.90;;;;;;5124853;27;20315;-84
2022/12/30 05:04:51;;;;;;;7.17;6.97;;;5.90;99.90;;;;;;5125364;28;21136;-84
2022/12/30 05:07:21;;;;;;;7.20;7.00;;;5.90;99.90;;;;;;5124866;28;20228;-84
2022/12/30 05:09:49;;;;;;;7.10;6.90;;;5.80;99.90;;;;;;5123961;28;20236;-84
2022/12/30 05:12:18;;;;;;;7.00;6.80;;;5.80;99.90;;;;;;5125604;28;20209;-83
2022/12/30 05:14:57;;;;;;;6.93;6.73;;;5.70;99.90;;;;;;5126029;28;20328;-84
2022/12/30 05:17:28;;;;;;;7.10;6.90;;;5.60;99.90;;;;;;5125442;28;20237;-84
2022/12/30 05:19:58;;;;;;;7.10;6.90;;;5.60;99.90;;;;;;5125672;28;20224;-84
2022/12/30 05:22:26;;;;;;;6.90;6.70;;;5.60;99.90;;;;;;5125087;27;20265;-84
2022/12/30 05:27:43;;;;;;;7.00;6.80;;;5.60;99.90;;;;;;5126499;28;20228;-84
2022/12/30 05:30:12;;;;;;;6.90;6.70;;;5.60;99.90;;;;;;5139177;28;20227;-85
2022/12/30 05:32:44;;;;;;;6.90;6.70;;;5.60;99.90;;;;;;5130556;28;20225;-85
2022/12/30 05:35:11;;;;;;;6.90;6.70;;;5.60;99.90;;;;;;5127018;28;20232;-84
2022/12/30 05:37:39;;;;;;;6.80;6.60;;;5.50;99.90;;;;;;5124811;28;20284;-83
2022/12/30 05:40:09;;;;;;;6.70;6.50;;;5.50;99.90;;;;;;5124722;27;20247;-85
2022/12/30 05:42:42;;;;;;;6.90;6.70;;;5.60;99.90;;;;;;5124250;28;20225;-84
2022/12/30 05:45:11;;;;;;;7.00;6.80;;;5.50;99.90;;;;;;5124582;28;20264;-84
2022/12/30 05:47:40;;;;;;;6.90;6.70;;;5.40;99.90;;;;;;5124087;28;20332;-85
2022/12/30 05:50:11;;;;;;;6.97;6.77;;;5.40;99.90;;;;;;5124074;28;20296;-84
2022/12/30 05:52:46;;;;;;;6.90;6.70;;;5.50;99.90;;;;;;5124382;28;20227;-84
2022/12/30 05:55:15;;;;;;;7.00;6.80;;;5.40;99.90;;;;;;5124204;28;20262;-84
2022/12/30 05:57:47;;;;;;;7.00;6.80;;;5.40;99.90;;;;;;5124945;28;20229;-85
2022/12/30 06:00:16;;;;;;;7.00;6.80;;;5.40;99.90;;;;;;5124750;28;20275;-84
2022/12/30 06:02:47;;;;;;;7.20;7.00;;;5.40;99.90;;;;;;5125935;28;20239;-85
2022/12/30 06:05:15;;;;;;;7.20;7.00;;;5.30;99.90;;;;;;5130831;28;20299;-84
2022/12/30 06:07:43;;;;;;;7.10;6.90;;;5.30;99.90;;;;;;5132605;28;20271;-85
2022/12/30 06:10:14;;;;;;;7.10;6.90;;;5.30;99.90;;;;;;5127580;28;20250;-84
2022/12/30 06:12:42;;;;;;;7.27;7.07;;;5.30;99.90;;;;;;5127466;28;20213;-85
2022/12/30 06:15:11;;;;;;;7.23;7.03;;;5.30;99.90;;;;;;5126819;28;20239;-84
2022/12/30 06:17:41;;;;;;;7.00;6.80;;;5.30;99.90;;;;;;5124556;27;20267;-84
2022/12/30 06:20:13;;;;;;;7.00;6.80;;;5.30;99.90;;;;;;5124210;28;20228;-84
2022/12/30 06:22:40;;;;;;;7.07;6.87;;;5.30;99.90;;;;;;5125012;28;20277;-84
2022/12/30 06:25:14;;;;;;;7.20;7.00;;;5.20;99.90;;;;;;5124943;28;20282;-84
2022/12/30 06:27:47;;;;;;;7.20;7.00;;;5.20;99.90;;;;;;5123669;28;20262;-83
2022/12/30 06:32:57;;;;;;;7.40;7.20;;;5.00;99.90;;;;;;5123265;27;20227;-84
2022/12/30 06:38:11;;;;;;;7.10;6.90;;;4.90;99.90;;;;;;5122776;28;20226;-84
2022/12/30 06:40:41;;;;;;;7.20;7.00;;;4.80;99.90;;;;;;5123117;28;20294;-85
2022/12/30 06:45:59;;;;;;;7.20;7.00;;;4.80;99.90;;;;;;5123872;27;20232;-84
2022/12/30 06:48:27;;;;;;;7.20;7.00;;;4.70;99.90;;;;;;5123720;28;20236;-84
2022/12/30 06:51:05;;;;;;;7.10;6.90;;;4.60;99.90;;;;;;5123344;28;20232;-84
2022/12/30 06:53:34;;;;;;;7.37;7.17;;;4.60;99.90;;;;;;5123511;27;20220;-84
2022/12/30 06:56:06;;;;;;;7.13;6.93;;;4.40;99.90;;;;;;5123280;28;20250;-85
2022/12/30 06:58:33;;;;;;;7.30;7.10;;;4.40;99.90;;;;;;5124296;28;20236;-85
2022/12/30 07:01:02;;;;;;;7.40;7.20;;;4.40;99.90;;;;;;5123135;28;20316;-84
2022/12/30 07:03:42;;;;;;;7.33;7.13;;;4.40;99.90;;;;;;5123714;28;20304;-84
2022/12/30 07:06:13;;;;;;;7.37;7.17;;;4.40;99.90;;;;;;5123136;28;20334;-84
2022/12/30 07:08:42;;;;;;;7.40;7.20;;;4.40;99.90;;;;;;5122979;28;20237;-84
2022/12/30 07:11:19;;;;;;;7.27;7.07;;;4.30;99.90;;;;;;5122390;28;20236;-84
2022/12/30 07:13:48;;;;;;;7.30;7.10;;;4.30;99.90;;;;;;5122456;28;20224;-84
2022/12/30 07:16:18;;;;;;;7.40;7.20;;;4.20;99.90;;;;;;5122683;28;20259;-85
2022/12/30 07:18:50;;;;;;;7.30;7.10;;;4.20;99.90;;;;;;5122870;28;20251;-84
2022/12/30 07:21:26;;;;;;;7.27;7.07;;;4.20;99.90;;;;;;5123195;28;20331;-84
2022/12/30 07:23:58;;;;;;;7.60;7.40;;;4.20;99.90;;;;;;5123668;28;20236;-85
2022/12/30 07:26:25;;;;;;;7.40;7.20;;;4.20;99.90;;;;;;5124493;28;20225;-83
2022/12/30 07:28:55;;;;;;;7.40;7.20;;;4.20;99.90;;;;;;5132597;28;20248;-84
2022/12/30 07:31:33;;;;;;;7.40;7.20;;;4.20;99.90;;;;;;5135444;28;20241;-84
2022/12/30 07:34:01;;;;;;;7.37;7.17;;;4.20;99.90;;;;;;5124182;27;20232;-84
2022/12/30 07:36:40;;;;;;;7.60;7.40;;;4.20;99.90;;;;;;5128218;28;20225;-84
2022/12/30 07:39:10;;;;;;;7.40;7.20;;;4.20;99.90;;;;;;5134659;28;20244;-84
2022/12/30 07:41:39;;;;;;;7.40;7.20;;;4.20;99.90;;;;;;5133514;28;20241;-83
2022/12/30 07:44:10;;;;;;;7.43;7.23;;;4.20;99.90;;;;;;5125717;28;20229;-84
2022/12/30 07:46:38;;;;;;;7.50;7.30;;;4.20;99.90;;;;;;5125822;28;20240;-83
2022/12/30 07:49:16;;;;;;;7.50;7.30;;;4.20;99.90;;;;;;5128295;28;20233;-83
2022/12/30 07:51:56;;;;;;;7.50;7.30;;;4.20;99.90;;;;;;5127450;28;20217;-84
2022/12/30 07:54:26;;;;;;;7.57;7.37;;;4.20;99.90;;;;;;5127887;28;20308;-84
2022/12/30 07:56:59;;;;;;;7.40;7.20;;;4.20;99.90;;;;;;5127003;28;20229;-83
2022/12/30 07:59:34;;;;;;;7.60;7.40;;;4.20;99.90;;;;;;5126982;28;20239;-84
2022/12/30 08:02:03;;;;;;;7.50;7.30;;;4.30;99.90;;;;;;5126178;27;20232;-84
2022/12/30 08:04:31;;;;;;;7.50;7.30;;;4.20;99.90;;;;;;5125968;28;20243;-85
2022/12/30 08:07:10;;;;;;;7.50;7.30;;;4.30;99.90;;;;;;5126783;28;20327;-84
2022/12/30 08:09:40;;;;;;;7.40;7.20;;;4.30;99.90;;;;;;5127144;28;20236;-85
2022/12/30 08:12:10;;;;;;;7.03;6.83;;;4.30;99.90;;;;;;5126958;27;20262;-84
2022/12/30 08:14:37;;;;;;;7.23;7.03;;;4.40;99.90;;;;;;5126882;28;20231;-84
2022/12/30 08:17:06;;;;;;;7.40;7.20;;;4.40;99.90;;;;;;5126525;28;20236;-84
2022/12/30 08:19:45;;;;;;;7.30;7.10;;;4.50;99.90;;;;;;5126774;27;20229;-84
2022/12/30 08:22:42;;;;;;;7.17;6.97;;;4.50;99.90;;;;;;5126493;28;20236;-84
2022/12/30 08:25:10;;;;;;;7.30;7.10;;;4.50;99.90;;;;;;5126244;28;20240;-84
2022/12/30 08:27:49;;;;;;;7.10;6.90;;;4.60;99.90;;;;;;5126654;28;20974;-84
2022/12/30 08:30:18;;;;;;;6.90;6.70;;;4.60;99.90;;;;;;5124732;28;20288;-83
2022/12/30 08:32:47;;;;;;;6.87;6.67;;;4.70;99.90;;;;;;5125860;28;20221;-84
2022/12/30 08:35:18;;;;;;;6.80;6.60;;;4.80;99.90;;;;;;5126026;28;20252;-84
2022/12/30 08:38:13;;;;;;;6.70;6.50;;;4.80;99.90;;;;;;5125933;28;20240;-84
2022/12/30 08:40:42;;;;;;;6.53;6.33;;;4.90;99.90;;;;;;5126281;27;20225;-84
2022/12/30 08:43:12;;;;;;;6.70;6.50;;;5.00;99.90;;;;;;5125977;28;20224;-84
2022/12/30 08:45:41;;;;;;;6.70;6.50;;;5.10;99.90;;;;;;5125604;27;20229;-84
2022/12/30 08:48:10;;;;;;;6.53;6.33;;;5.10;99.90;;;;;;5125978;28;20229;-84
2022/12/30 08:50:40;;;;;;;6.70;6.50;;;5.20;99.90;;;;;;5125232;28;20287;-84
2022/12/30 08:53:18;;;;;;;6.40;6.20;;;5.20;99.90;;;;;;5125345;27;20221;-84
2022/12/30 08:55:47;;;;;;;6.30;6.10;;;5.30;99.90;;;;;;5126070;28;20232;-83
2022/12/30 08:58:17;;;;;;;6.30;6.10;;;5.40;99.90;;;;;;5125954;28;20243;-84
2022/12/30 09:00:46;;;;;;;6.40;6.20;;;5.50;99.90;;;;;;5125537;28;20220;-84
2022/12/30 09:03:16;;;;;;;6.63;6.43;;;5.60;99.90;;;;;;5124823;28;20228;-84
2022/12/30 09:05:45;;;;;;;6.67;6.47;;;5.70;99.90;;;;;;5124600;28;20216;-83
2022/12/30 09:08:34;;;;;;;6.80;6.60;;;5.80;99.90;;;;;;5125829;27;20236;-84
2022/12/30 09:11:13;;;;;;;7.17;6.97;;;5.90;99.90;;;;;;5128839;28;20233;-84
2022/12/30 09:13:42;;;;;;;6.90;6.70;;;6.00;99.90;;;;;;5127502;27;20227;-84
2022/12/30 09:16:19;;;;;;;7.30;7.10;;;6.10;99.90;;;;;;5126709;28;20316;-84
2022/12/30 09:18:48;;;;;;;7.37;7.17;;;6.10;99.90;;;;;;5127002;28;20232;-85
2022/12/30 09:21:19;;;;;;;7.47;7.27;;;6.20;99.90;;;;;;5126375;28;20252;-84
2022/12/30 09:24:10;;;;;;;7.30;7.10;;;6.30;99.90;;;;;;5126455;28;20251;-85
2022/12/30 09:26:42;;;;;;;7.30;7.10;;;6.40;99.90;;;;;;5125714;28;20229;-85
2022/12/30 09:29:14;;;;;;;7.47;7.27;;;6.50;99.90;;;;;;5125594;28;20240;-85
2022/12/30 09:31:44;;;;;;;7.80;7.60;;;6.50;99.90;;;;;;5125835;28;20221;-85
2022/12/30 09:34:19;;;;;;;7.83;7.63;;;6.50;99.90;;;;;;5125449;28;20221;-84
2022/12/30 09:36:49;;;;;;;8.30;8.10;;;6.60;99.90;;;;;;5126226;28;20224;-85
2022/12/30 09:39:30;;;;;;;8.50;8.30;;;6.70;99.90;;;;;;5126612;28;20256;-85
2022/12/30 09:45:12;;;;;;;8.60;8.40;;;6.80;99.90;;;;;;5127298;28;20236;-84
2022/12/30 09:47:51;;;;;;;8.57;8.37;;;6.90;99.90;;;;;;5128104;28;20229;-85
2022/12/30 09:50:37;;;;;;;8.33;8.13;;;7.00;99.90;;;;;;5132860;28;20247;-85
2022/12/30 09:53:15;;;;;;;8.10;7.90;;;7.00;99.90;;;;;;5129268;28;20228;-86
2022/12/30 09:55:54;;;;;;;8.40;8.20;;;7.10;99.90;;;;;;5125385;27;20225;-85
2022/12/30 09:58:32;;;;;;;8.07;7.87;;;7.30;99.90;;;;;;5125632;28;20224;-84
2022/12/30 10:01:13;;;;;;;8.20;8.00;;;7.60;99.90;;;;;;5124915;28;20232;-85
2022/12/30 10:03:41;;;;;;;8.23;8.03;;;7.80;99.90;;;;;;5125771;28;20266;-85
2022/12/30 10:09:43;;;;;;;8.13;7.93;;;8.00;99.90;;;;;;5120580;28;20230;-85
2022/12/30 10:12:47;;;;;;;8.20;8.00;;;8.30;99.90;;;;;;5125008;27;20248;-85
2022/12/30 10:15:53;;;;;;;8.03;7.83;;;8.40;99.90;;;;;;5126151;28;20290;-85
2022/12/30 10:18:53;;;;;;;8.17;7.97;;;8.40;99.90;;;;;;5124107;28;20315;-85
2022/12/30 10:21:33;;;;;;;8.33;8.13;;;8.20;99.90;;;;;;5125038;28;20278;-85
2022/12/30 10:24:37;;;;;;;8.20;8.00;;;8.10;99.90;;;;;;5124885;28;20248;-84
2022/12/30 10:27:14;;;;;;;8.00;7.80;;;7.90;99.90;;;;;;5116141;28;20228;-84
2022/12/30 10:29:53;;;;;;;8.30;8.10;;;7.90;99.90;;;;;;5124041;28;20319;-84
2022/12/30 10:35:19;;;;;;;8.23;8.03;;;7.50;99.90;;;;;;5125144;28;20232;-85
2022/12/30 10:37:59;;;;;;;8.20;8.00;;;7.50;99.90;;;;;;5124476;28;20228;-85
2022/12/30 10:40:48;;;;;;;8.20;8.00;;;7.60;99.90;;;;;;5125011;28;20240;-85
2022/12/30 10:43:42;;;;;;;8.23;8.03;;;7.40;99.90;;;;;;5124600;28;20216;-85
2022/12/30 10:46:37;;;;;;;8.20;8.00;;;7.40;99.90;;;;;;5123825;28;20237;-85
2022/12/30 11:06:06;;;;;;;8.57;8.37;;;6.70;99.90;;;;;;5136308;27;20216;-88
2022/12/30 11:08:58;;;;;;;8.67;8.47;;;6.60;99.90;;;;;;5141135;27;20236;-88
2022/12/30 11:19:00;;;;;;;8.33;8.13;;;6.50;99.90;;;;;;5139068;27;20228;-88
2022/12/30 11:32:15;;;;;;;8.70;8.50;;;6.60;99.90;;;;;;5116648;27;20216;-88
2022/12/30 11:35:46;;;;;;;8.40;8.20;;;6.50;99.90;;;;;;5116831;27;20251;-88
2022/12/30 11:39:07;;;;;;;8.40;8.20;;;6.50;99.90;;;;;;5085530;27;20319;-88
2022/12/30 11:51:57;;;;;;;8.60;8.40;;;6.60;99.90;;;;;;5093747;28;20300;-87
2022/12/30 12:04:52;;;;;;;9.00;8.70;;;6.80;99.90;;;;;;5144864;27;20247;-89
2022/12/30 12:07:38;;;;;;;9.10;8.80;;;6.80;99.90;;;;;;5144812;27;20240;-88
2022/12/30 12:11:24;;;;;;;9.13;8.83;;;6.80;99.90;;;;;;5144293;27;20228;-88
2022/12/30 13:00:16;;;;;;;8.80;8.60;;;8.20;99.90;;;;;;5155267;27;20227;-88
2022/12/30 13:10:57;;;;;;;8.53;8.33;;;8.20;99.90;;;;;;5136042;27;20216;-87
2022/12/30 13:17:06;;;;;;;8.30;8.10;;;8.30;99.90;;;;;;5139052;27;20220;-87
2022/12/30 13:20:24;;;;;;;8.27;8.07;;;8.20;99.90;;;;;;5144062;27;20310;-88
2022/12/30 13:29:01;;;;;;;8.13;7.93;;;7.90;99.90;;;;;;5139941;27;20224;-88
2022/12/30 13:32:05;;;;;;;8.13;7.93;;;7.80;99.90;;;;;;5135825;27;20228;-88
2022/12/30 13:34:49;;;;;;;7.97;7.77;;;7.80;99.90;;;;;;5133360;27;20319;-88
2022/12/30 13:37:28;;;;;;;8.00;7.80;;;7.70;99.90;;;;;;5132909;27;20226;-88
2022/12/30 13:40:06;;;;;;;8.23;8.03;;;7.80;99.90;;;;;;5142942;27;20231;-87
2022/12/30 13:43:13;;;;;;;8.40;8.20;;;7.80;99.90;;;;;;5141691;27;20229;-88
2022/12/30 13:45:57;;;;;;;8.10;7.90;;;7.80;99.90;;;;;;5131240;27;20245;-88
2022/12/30 13:51:25;;;;;;;8.30;8.10;;;7.80;99.90;;;;;;5120361;28;20228;-88
2022/12/30 13:54:11;;;;;;;8.30;8.10;;;7.70;99.90;;;;;;5123500;28;20286;-88
2022/12/30 13:56:50;;;;;;;8.20;8.00;;;7.70;99.90;;;;;;5122559;28;20229;-88
2022/12/30 13:59:28;;;;;;;8.20;8.00;;;7.70;99.90;;;;;;5121568;28;20220;-89
2022/12/30 14:03:03;;;;;;;8.40;8.20;;;7.70;99.90;;;;;;5121448;28;20235;-88
2022/12/30 14:13:06;;;;;;;8.30;8.10;;;7.50;99.90;;;;;;5121069;27;20217;-89
2022/12/30 14:27:09;;;;;;;8.03;7.83;;;7.50;99.90;;;;;;5111082;27;20296;-88
2022/12/30 14:29:40;;;;;;;8.10;7.90;;;7.40;99.90;;;;;;5122013;28;20248;-89
2022/12/30 14:32:25;;;;;;;8.10;7.90;;;7.40;99.90;;;;;;5122225;28;20252;-88
2022/12/30 14:35:06;;;;;;;8.10;7.90;;;7.40;99.90;;;;;;5122181;27;20221;-87
2022/12/30 14:37:51;;;;;;;8.20;8.00;;;7.40;99.90;;;;;;5123484;28;20228;-88
2022/12/30 14:43:33;;;;;;;8.33;8.13;;;7.40;99.90;;;;;;5127773;28;20211;-88
2022/12/30 14:47:02;;;;;;;8.37;8.17;;;7.40;99.90;;;;;;5134010;27;20228;-88
2022/12/30 14:49:53;;;;;;;8.50;8.30;;;7.40;99.90;;;;;;5040328;28;20292;-86
2022/12/30 14:53:18;;;;;;;8.40;8.20;;;7.40;99.90;;;;;;5122454;28;20250;-88
2022/12/30 14:55:51;;;;;;;8.13;7.93;;;7.40;99.90;;;;;;5121913;28;20251;-88
2022/12/30 15:01:18;;;;;;;7.87;7.67;;;7.40;99.90;;;;;;5118658;28;20668;-88
2022/12/30 15:17:45;;;;;;;8.10;7.90;;;7.40;99.90;;;;;;5081927;27;20284;-88
2022/12/30 15:32:48;;;;;;;7.90;7.70;;;7.30;99.90;;;;;;5141353;27;20291;-88
2022/12/30 15:54:26;;;;;;;;;;;;;;;;;;;;;
2022/12/30 16:37:00;;;;;;;7.60;7.40;;;7.50;99.90;;;;;;5095492;28;20228;-88
2022/12/30 16:49:45;;;;;;;7.63;7.43;;;7.50;99.90;;;;;;5197108;22;20247;-84
2022/12/30 16:55:03;;;;;;;7.60;7.40;;;7.50;99.90;;;;;;5146554;27;20220;-84
2022/12/30 17:00:54;;;;;;;7.43;7.23;;;7.50;99.90;;;;;;5147245;27;20218;-85
2022/12/30 17:06:07;;;;;;;7.00;6.80;;;7.50;99.90;;;;;;5145538;27;20212;-85
2022/12/30 17:22:07;;;;;;;7.70;7.50;;;7.50;99.90;;;;;;5149174;27;20228;-85
2022/12/30 17:24:35;;;;;;;7.70;7.50;;;7.50;99.90;;;;;;5148955;27;20239;-85
2022/12/30 17:27:04;;;;;;;7.60;7.40;;;7.60;99.90;;;;;;5148257;27;20254;-85
2022/12/30 17:29:36;;;;;;;7.30;7.10;;;7.50;99.90;;;;;;5148291;27;20255;-85
2022/12/30 17:32:22;;;;;;;7.30;7.10;;;7.50;99.90;;;;;;5147503;27;20259;-85
2022/12/30 17:34:50;;;;;;;7.30;7.10;;;7.50;99.90;;;;;;5147310;27;20270;-85
2022/12/30 17:37:20;;;;;;;7.10;6.90;;;7.50;99.90;;;;;;5147699;27;20236;-85
2022/12/30 17:39:50;;;;;;;7.30;7.10;;;7.50;99.90;;;;;;5147480;27;20221;-85
2022/12/30 17:42:21;;;;;;;7.40;7.20;;;7.50;99.90;;;;;;5147409;27;20319;-84
2022/12/30 17:44:50;;;;;;;7.20;7.00;;;7.50;99.90;;;;;;5148477;27;20294;-85
2022/12/30 17:47:50;;;;;;;7.10;6.90;;;7.50;99.90;;;;;;5148220;27;20224;-85
2022/12/30 17:50:24;;;;;;;7.23;7.03;;;7.50;99.90;;;;;;5148805;27;20274;-85
2022/12/30 17:52:54;;;;;;;7.30;7.10;;;7.60;99.90;;;;;;5148594;27;20285;-84
2022/12/30 17:55:24;;;;;;;7.20;7.00;;;7.60;99.90;;;;;;5147601;27;20232;-85
2022/12/30 17:57:54;;;;;;;7.23;7.03;;;7.60;99.90;;;;;;5147466;27;20234;-85
2022/12/30 18:00:25;;;;;;;7.27;7.07;;;7.60;99.90;;;;;;5147859;27;20264;-84
2022/12/30 18:02:54;;;;;;;7.07;6.87;;;7.60;99.90;;;;;;5147442;27;20228;-85
2022/12/30 18:05:22;;;;;;;7.20;7.00;;;7.60;99.90;;;;;;5147268;27;20291;-85
2022/12/30 18:07:50;;;;;;;7.10;6.90;;;7.60;99.90;;;;;;5147289;27;20338;-85
2022/12/30 18:10:20;;;;;;;7.13;6.93;;;7.60;99.90;;;;;;5146851;27;20231;-85
2022/12/30 18:12:49;;;;;;;6.87;6.67;;;7.60;99.90;;;;;;5146620;27;20321;-84
2022/12/30 18:15:18;;;;;;;7.03;6.83;;;7.60;99.90;;;;;;5146133;27;20248;-85
2022/12/30 18:17:48;;;;;;;7.10;6.90;;;7.60;99.90;;;;;;5146521;27;20384;-85
2022/12/30 18:20:29;;;;;;;7.20;7.00;;;7.70;99.90;;;;;;5147307;27;20220;-85
2022/12/30 18:22:57;;;;;;;7.00;6.80;;;7.70;99.90;;;;;;5147062;27;20281;-85
2022/12/30 18:25:26;;;;;;;6.93;6.73;;;7.70;99.90;;;;;;5157008;27;20287;-84
2022/12/30 18:27:57;;;;;;;6.90;6.70;;;7.70;99.90;;;;;;5153290;27;20332;-85
2022/12/30 18:30:24;;;;;;;7.00;6.80;;;7.70;99.90;;;;;;5149978;27;20246;-85
2022/12/30 18:32:55;;;;;;;7.00;6.80;;;7.70;99.90;;;;;;5148666;27;20228;-84
2022/12/30 18:35:26;;;;;;;7.00;6.80;;;7.70;99.90;;;;;;5148749;27;20220;-84
2022/12/30 18:37:53;;;;;;;7.07;6.87;;;7.80;99.90;;;;;;5147471;27;20240;-84
2022/12/30 18:40:22;;;;;;;7.20;7.00;;;7.80;99.90;;;;;;5148481;27;20295;-84
2022/12/30 18:42:51;;;;;;;7.27;7.07;;;7.80;99.90;;;;;;5147298;27;20228;-85
2022/12/30 18:45:22;;;;;;;7.10;6.90;;;7.80;99.90;;;;;;5147349;27;20287;-85
2022/12/30 18:47:50;;;;;;;7.20;7.00;;;7.80;99.90;;;;;;5145514;27;20319;-85
2022/12/30 18:50:19;;;;;;;6.83;6.63;;;7.90;99.90;;;;;;5145788;27;20246;-85
2022/12/30 18:53:01;;;;;;;6.80;6.60;;;7.90;99.90;;;;;;5145983;27;20228;-84
2022/12/30 18:55:28;;;;;;;6.63;6.43;;;7.90;99.90;;;;;;5145991;27;20231;-83
2022/12/30 18:57:57;;;;;;;6.70;6.50;;;7.90;99.90;;;;;;5144459;27;20259;-85
2022/12/30 19:00:26;;;;;;;6.70;6.50;;;8.00;99.90;;;;;;5145434;27;20254;-84
2022/12/30 19:02:56;;;;;;;6.80;6.60;;;8.00;99.90;;;;;;5144210;27;20228;-85
2022/12/30 19:05:25;;;;;;;6.63;6.43;;;8.10;99.90;;;;;;5144445;27;20289;-85
2022/12/30 19:10:41;;;;;;;6.80;6.60;;;8.10;99.90;;;;;;5144391;27;20270;-86
2022/12/30 19:13:11;;;;;;;6.70;6.50;;;8.10;99.90;;;;;;5145464;27;20224;-84
2022/12/30 19:15:40;;;;;;;6.70;6.50;;;8.10;99.90;;;;;;5144757;27;20282;-85
2022/12/30 19:18:09;;;;;;;6.90;6.70;;;8.20;99.90;;;;;;5144167;27;20236;-85
2022/12/30 19:20:39;;;;;;;7.07;6.87;;;8.20;99.90;;;;;;5144679;27;20284;-84